Vowinckel, Pennsylvania
Current Conditions -  °F | °C
As of 10:20 AM on Thursday 30 Oct 2014 (Local Time) from KDUJ Reporting Station
Broken Clouds Broken Clouds  
Wind Chill: 38°   Ceiling: 4400
Heat Index: 43°   Visibility: 10mi
Dew Point: 36°   Wind: 8mph
Humidity: 76%   Direction: 340°NNW
Pressure: 30.05"   Gusts: NA
Location:  41.41°N, 79.23°W
Report Text: KDUJ 301420Z AUTO 34007KT 300V010 10SM SCT019 BKN044 06/02 A3005 RMK AO2 T00610022
Loading
Personal Weather Stations






























Interactive Weather Map
Tropical Storm Tracking
New forecast layout! Learn more

10-Day Weather Forecast

Advertisements
Track Severe Weather on mobile